sensor_id;sensor_type;location;lat;lon;timestamp;temperature;humidity
17236;DHT22;8734;59.272;17.780;2024-01-30T00:01:36;1.80;99.90
17236;DHT22;8734;59.272;17.780;2024-01-30T00:04:04;1.70;99.90
17236;DHT22;8734;59.272;17.780;2024-01-30T00:06:34;1.70;99.90
17236;DHT22;8734;59.272;17.780;2024-01-30T00:09:02;1.80;99.90
17236;DHT22;8734;59.272;17.780;2024-01-30T00:11:31;1.80;99.90
17236;DHT22;8734;59.272;17.780;2024-01-30T00:14:00;1.80;99.90
17236;DHT22;8734;59.272;17.780;2024-01-30T00:16:28;1.80;99.90
17236;DHT22;8734;59.272;17.780;2024-01-30T00:18:56;1.70;99.90
17236;DHT22;8734;59.272;17.780;2024-01-30T00:21:25;1.60;99.90
17236;DHT22;8734;59.272;17.780;2024-01-30T00:23:55;1.60;99.90
17236;DHT22;8734;59.272;17.780;2024-01-30T00:26:23;1.50;99.90
17236;DHT22;8734;59.272;17.780;2024-01-30T00:28:51;1.40;99.90
17236;DHT22;8734;59.272;17.780;2024-01-30T00:31:19;1.40;99.90
17236;DHT22;8734;59.272;17.780;2024-01-30T00:33:47;1.40;99.90
17236;DHT22;8734;59.272;17.780;2024-01-30T00:36:15;1.30;99.90
17236;DHT22;8734;59.272;17.780;2024-01-30T00:38:44;1.40;99.90
17236;DHT22;8734;59.272;17.780;2024-01-30T00:41:13;1.40;99.90
17236;DHT22;8734;59.272;17.780;2024-01-30T00:43:42;1.40;99.90
17236;DHT22;8734;59.272;17.780;2024-01-30T00:46:10;1.40;99.90
17236;DHT22;8734;59.272;17.780;2024-01-30T00:48:38;1.50;99.90
17236;DHT22;8734;59.272;17.780;2024-01-30T00:51:07;1.50;99.90
17236;DHT22;8734;59.272;17.780;2024-01-30T00:53:35;1.50;99.90
17236;DHT22;8734;59.272;17.780;2024-01-30T00:56:04;1.50;99.90
17236;DHT22;8734;59.272;17.780;2024-01-30T00:58:34;1.60;99.90
17236;DHT22;8734;59.272;17.780;2024-01-30T01:01:02;1.60;99.90
17236;DHT22;8734;59.272;17.780;2024-01-30T01:03:31;1.60;99.90
17236;DHT22;8734;59.272;17.780;2024-01-30T01:05:59;1.70;99.90
17236;DHT22;8734;59.272;17.780;2024-01-30T01:08:27;1.80;99.90
17236;DHT22;8734;59.272;17.780;2024-01-30T01:10:55;1.80;99.90
17236;DHT22;8734;59.272;17.780;2024-01-30T01:13:24;1.80;99.90
17236;DHT22;8734;59.272;17.780;2024-01-30T01:15:53;1.90;99.90
17236;DHT22;8734;59.272;17.780;2024-01-30T01:18:22;1.90;99.90
17236;DHT22;8734;59.272;17.780;2024-01-30T01:20:50;1.80;99.90
17236;DHT22;8734;59.272;17.780;2024-01-30T01:23:18;1.80;99.90
17236;DHT22;8734;59.272;17.780;2024-01-30T01:25:46;1.80;99.90
17236;DHT22;8734;59.272;17.780;2024-01-30T01:28:15;1.90;99.90
17236;DHT22;8734;59.272;17.780;2024-01-30T01:30:43;1.90;99.90
17236;DHT22;8734;59.272;17.780;2024-01-30T01:33:13;1.80;99.90
17236;DHT22;8734;59.272;17.780;2024-01-30T01:35:42;1.80;99.90
17236;DHT22;8734;59.272;17.780;2024-01-30T01:38:11;1.80;99.90
17236;DHT22;8734;59.272;17.780;2024-01-30T01:40:39;1.80;99.90
17236;DHT22;8734;59.272;17.780;2024-01-30T01:43:08;1.80;99.90
17236;DHT22;8734;59.272;17.780;2024-01-30T01:45:36;1.80;99.90
17236;DHT22;8734;59.272;17.780;2024-01-30T01:48:05;1.80;99.90
17236;DHT22;8734;59.272;17.780;2024-01-30T01:50:36;1.80;99.90
17236;DHT22;8734;59.272;17.780;2024-01-30T01:53:07;1.80;99.90
17236;DHT22;8734;59.272;17.780;2024-01-30T01:55:35;1.80;99.90
17236;DHT22;8734;59.272;17.780;2024-01-30T01:58:04;1.80;99.90
17236;DHT22;8734;59.272;17.780;2024-01-30T02:00:33;1.80;99.90
17236;DHT22;8734;59.272;17.780;2024-01-30T02:03:02;1.80;99.90
17236;DHT22;8734;59.272;17.780;2024-01-30T02:05:33;1.80;99.90
17236;DHT22;8734;59.272;17.780;2024-01-30T02:08:02;1.80;99.90
17236;DHT22;8734;59.272;17.780;2024-01-30T02:10:30;1.80;99.90
17236;DHT22;8734;59.272;17.780;2024-01-30T02:12:58;1.80;99.90
17236;DHT22;8734;59.272;17.780;2024-01-30T02:15:27;1.80;99.90
17236;DHT22;8734;59.272;17.780;2024-01-30T02:17:56;1.70;99.90
17236;DHT22;8734;59.272;17.780;2024-01-30T02:20:25;1.70;99.90
17236;DHT22;8734;59.272;17.780;2024-01-30T02:22:58;1.70;99.90
17236;DHT22;8734;59.272;17.780;2024-01-30T02:25:32;1.70;99.90
17236;DHT22;8734;59.272;17.780;2024-01-30T02:28:01;1.80;99.90
17236;DHT22;8734;59.272;17.780;2024-01-30T02:30:30;1.80;99.90
17236;DHT22;8734;59.272;17.780;2024-01-30T02:32:58;1.80;99.90
17236;DHT22;8734;59.272;17.780;2024-01-30T02:35:26;1.80;99.90
17236;DHT22;8734;59.272;17.780;2024-01-30T02:37:54;1.80;99.90
17236;DHT22;8734;59.272;17.780;2024-01-30T02:40:24;1.80;99.90
17236;DHT22;8734;59.272;17.780;2024-01-30T02:42:52;1.80;99.90
17236;DHT22;8734;59.272;17.780;2024-01-30T02:45:20;1.80;99.90
17236;DHT22;8734;59.272;17.780;2024-01-30T02:47:48;1.80;99.90
17236;DHT22;8734;59.272;17.780;2024-01-30T02:50:17;1.80;99.90
17236;DHT22;8734;59.272;17.780;2024-01-30T02:52:45;1.90;99.90
17236;DHT22;8734;59.272;17.780;2024-01-30T02:55:13;1.90;99.90
17236;DHT22;8734;59.272;17.780;2024-01-30T02:57:45;1.90;99.90
17236;DHT22;8734;59.272;17.780;2024-01-30T03:00:14;1.90;99.90
17236;DHT22;8734;59.272;17.780;2024-01-30T03:02:42;1.90;99.90
17236;DHT22;8734;59.272;17.780;2024-01-30T03:05:11;2.00;99.90
17236;DHT22;8734;59.272;17.780;2024-01-30T03:07:39;2.00;99.90
17236;DHT22;8734;59.272;17.780;2024-01-30T03:10:08;2.00;99.90
17236;DHT22;8734;59.272;17.780;2024-01-30T03:12:36;2.00;99.90
17236;DHT22;8734;59.272;17.780;2024-01-30T03:15:06;2.00;99.90
17236;DHT22;8734;59.272;17.780;2024-01-30T03:17:36;2.00;99.90
17236;DHT22;8734;59.272;17.780;2024-01-30T03:20:06;2.00;99.90
17236;DHT22;8734;59.272;17.780;2024-01-30T03:22:34;2.00;99.90
17236;DHT22;8734;59.272;17.780;2024-01-30T03:25:03;2.00;99.90
17236;DHT22;8734;59.272;17.780;2024-01-30T03:27:31;1.90;99.90
17236;DHT22;8734;59.272;17.780;2024-01-30T03:29:59;2.00;99.90
17236;DHT22;8734;59.272;17.780;2024-01-30T03:32:29;1.90;99.90
17236;DHT22;8734;59.272;17.780;2024-01-30T03:34:57;2.00;99.90
17236;DHT22;8734;59.272;17.780;2024-01-30T03:37:26;2.00;99.90
17236;DHT22;8734;59.272;17.780;2024-01-30T03:39:54;1.90;99.90
17236;DHT22;8734;59.272;17.780;2024-01-30T03:42:23;1.80;99.90
17236;DHT22;8734;59.272;17.780;2024-01-30T03:44:51;1.80;99.90
17236;DHT22;8734;59.272;17.780;2024-01-30T03:47:20;1.80;99.90
17236;DHT22;8734;59.272;17.780;2024-01-30T03:49:50;1.80;99.90
17236;DHT22;8734;59.272;17.780;2024-01-30T03:52:20;1.80;99.90
17236;DHT22;8734;59.272;17.780;2024-01-30T03:54:48;1.70;99.90
17236;DHT22;8734;59.272;17.780;2024-01-30T03:57:16;1.70;99.90
17236;DHT22;8734;59.272;17.780;2024-01-30T03:59:45;1.70;99.90
17236;DHT22;8734;59.272;17.780;2024-01-30T04:02:13;1.70;99.90
17236;DHT22;8734;59.272;17.780;2024-01-30T04:04:42;1.70;99.90
17236;DHT22;8734;59.272;17.780;2024-01-30T04:07:11;1.70;99.90
17236;DHT22;8734;59.272;17.780;2024-01-30T04:09:40;1.70;99.90
17236;DHT22;8734;59.272;17.780;2024-01-30T04:12:08;1.70;99.90
17236;DHT22;8734;59.272;17.780;2024-01-30T04:14:39;1.70;99.90
17236;DHT22;8734;59.272;17.780;2024-01-30T04:17:07;1.70;99.90
17236;DHT22;8734;59.272;17.780;2024-01-30T04:19:37;1.70;99.90
17236;DHT22;8734;59.272;17.780;2024-01-30T04:22:06;1.70;99.90
17236;DHT22;8734;59.272;17.780;2024-01-30T04:24:35;1.60;99.90
17236;DHT22;8734;59.272;17.780;2024-01-30T04:27:04;1.60;99.90
17236;DHT22;8734;59.272;17.780;2024-01-30T04:29:32;1.60;99.90
17236;DHT22;8734;59.272;17.780;2024-01-30T04:32:00;1.60;99.90
17236;DHT22;8734;59.272;17.780;2024-01-30T04:34:29;1.60;99.90
17236;DHT22;8734;59.272;17.780;2024-01-30T04:36:57;1.60;99.90
17236;DHT22;8734;59.272;17.780;2024-01-30T04:39:25;1.70;99.90
17236;DHT22;8734;59.272;17.780;2024-01-30T04:41:55;1.60;99.90
17236;DHT22;8734;59.272;17.780;2024-01-30T04:44:23;1.60;99.90
17236;DHT22;8734;59.272;17.780;2024-01-30T04:46:51;1.50;99.90
17236;DHT22;8734;59.272;17.780;2024-01-30T04:49:19;1.50;99.90
17236;DHT22;8734;59.272;17.780;2024-01-30T04:51:48;1.50;99.90
17236;DHT22;8734;59.272;17.780;2024-01-30T04:54:16;1.50;99.90
17236;DHT22;8734;59.272;17.780;2024-01-30T04:56:44;1.50;99.90
17236;DHT22;8734;59.272;17.780;2024-01-30T04:59:14;1.40;99.90
17236;DHT22;8734;59.272;17.780;2024-01-30T05:01:42;1.40;99.90
17236;DHT22;8734;59.272;17.780;2024-01-30T05:04:10;1.40;99.90
17236;DHT22;8734;59.272;17.780;2024-01-30T05:06:43;1.40;99.90
17236;DHT22;8734;59.272;17.780;2024-01-30T05:09:12;1.40;99.90
17236;DHT22;8734;59.272;17.780;2024-01-30T05:11:40;1.50;99.90
17236;DHT22;8734;59.272;17.780;2024-01-30T05:14:09;1.40;99.90
17236;DHT22;8734;59.272;17.780;2024-01-30T05:16:39;1.40;99.90
17236;DHT22;8734;59.272;17.780;2024-01-30T05:19:07;1.40;99.90
17236;DHT22;8734;59.272;17.780;2024-01-30T05:21:36;1.40;99.90
17236;DHT22;8734;59.272;17.780;2024-01-30T05:24:05;1.40;99.90
17236;DHT22;8734;59.272;17.780;2024-01-30T05:26:33;1.40;99.90
17236;DHT22;8734;59.272;17.780;2024-01-30T05:29:02;1.50;99.90
17236;DHT22;8734;59.272;17.780;2024-01-30T05:31:30;1.40;99.90
17236;DHT22;8734;59.272;17.780;2024-01-30T05:34:00;1.40;99.90
17236;DHT22;8734;59.272;17.780;2024-01-30T05:36:28;1.30;99.90
17236;DHT22;8734;59.272;17.780;2024-01-30T05:38:57;1.40;99.90
17236;DHT22;8734;59.272;17.780;2024-01-30T05:41:25;1.40;99.90
17236;DHT22;8734;59.272;17.780;2024-01-30T05:43:53;1.40;99.90
17236;DHT22;8734;59.272;17.780;2024-01-30T05:46:22;1.40;99.90
17236;DHT22;8734;59.272;17.780;2024-01-30T05:48:51;1.30;99.90
17236;DHT22;8734;59.272;17.780;2024-01-30T05:51:21;1.30;99.90
17236;DHT22;8734;59.272;17.780;2024-01-30T05:53:49;1.40;99.90
17236;DHT22;8734;59.272;17.780;2024-01-30T05:56:17;1.40;99.90
17236;DHT22;8734;59.272;17.780;2024-01-30T05:58:46;1.40;99.90
17236;DHT22;8734;59.272;17.780;2024-01-30T06:01:14;1.50;99.90
17236;DHT22;8734;59.272;17.780;2024-01-30T06:03:43;1.30;99.90
17236;DHT22;8734;59.272;17.780;2024-01-30T06:06:11;1.30;99.90
17236;DHT22;8734;59.272;17.780;2024-01-30T06:08:40;1.30;99.90
17236;DHT22;8734;59.272;17.780;2024-01-30T06:11:10;1.30;99.90
17236;DHT22;8734;59.272;17.780;2024-01-30T06:13:38;1.40;99.90
17236;DHT22;8734;59.272;17.780;2024-01-30T06:16:10;1.40;99.90
17236;DHT22;8734;59.272;17.780;2024-01-30T06:18:39;1.40;99.90
17236;DHT22;8734;59.272;17.780;2024-01-30T06:21:07;1.40;99.90
17236;DHT22;8734;59.272;17.780;2024-01-30T06:23:40;1.30;99.90
17236;DHT22;8734;59.272;17.780;2024-01-30T06:26:08;1.30;99.90
17236;DHT22;8734;59.272;17.780;2024-01-30T06:28:37;1.30;99.90
17236;DHT22;8734;59.272;17.780;2024-01-30T06:31:05;1.30;99.90
17236;DHT22;8734;59.272;17.780;2024-01-30T06:33:34;1.20;99.90
17236;DHT22;8734;59.272;17.780;2024-01-30T06:36:02;1.20;99.90
17236;DHT22;8734;59.272;17.780;2024-01-30T06:38:30;1.20;99.90
17236;DHT22;8734;59.272;17.780;2024-01-30T06:41:00;1.30;99.90
17236;DHT22;8734;59.272;17.780;2024-01-30T06:43:28;1.20;99.90
17236;DHT22;8734;59.272;17.780;2024-01-30T06:45:56;1.20;99.90
17236;DHT22;8734;59.272;17.780;2024-01-30T06:48:25;1.20;99.90
17236;DHT22;8734;59.272;17.780;2024-01-30T06:50:53;1.20;99.90
17236;DHT22;8734;59.272;17.780;2024-01-30T06:53:22;1.20;99.90
17236;DHT22;8734;59.272;17.780;2024-01-30T06:55:52;1.20;99.90
17236;DHT22;8734;59.272;17.780;2024-01-30T06:58:21;1.20;99.90
17236;DHT22;8734;59.272;17.780;2024-01-30T07:00:50;1.20;99.90
17236;DHT22;8734;59.272;17.780;2024-01-30T07:03:18;1.20;99.90
17236;DHT22;8734;59.272;17.780;2024-01-30T07:05:46;1.20;99.90
17236;DHT22;8734;59.272;17.780;2024-01-30T07:08:15;1.30;99.90
17236;DHT22;8734;59.272;17.780;2024-01-30T07:10:44;1.30;99.90
17236;DHT22;8734;59.272;17.780;2024-01-30T07:13:12;1.30;99.90
17236;DHT22;8734;59.272;17.780;2024-01-30T07:15:45;1.30;99.90
17236;DHT22;8734;59.272;17.780;2024-01-30T07:18:13;1.30;99.90
17236;DHT22;8734;59.272;17.780;2024-01-30T07:20:42;1.30;99.90
17236;DHT22;8734;59.272;17.780;2024-01-30T07:23:13;1.30;99.90
17236;DHT22;8734;59.272;17.780;2024-01-30T07:25:43;1.30;99.90
17236;DHT22;8734;59.272;17.780;2024-01-30T07:28:15;1.40;99.90
17236;DHT22;8734;59.272;17.780;2024-01-30T07:30:46;1.40;99.90
17236;DHT22;8734;59.272;17.780;2024-01-30T07:33:15;1.40;99.90
17236;DHT22;8734;59.272;17.780;2024-01-30T07:35:44;1.40;99.90
17236;DHT22;8734;59.272;17.780;2024-01-30T07:38:13;1.50;99.90
17236;DHT22;8734;59.272;17.780;2024-01-30T07:40:41;1.50;99.90
17236;DHT22;8734;59.272;17.780;2024-01-30T07:43:09;1.60;99.90
17236;DHT22;8734;59.272;17.780;2024-01-30T07:45:38;1.60;99.90
17236;DHT22;8734;59.272;17.780;2024-01-30T07:48:07;1.50;99.90
17236;DHT22;8734;59.272;17.780;2024-01-30T07:50:36;1.50;99.90
17236;DHT22;8734;59.272;17.780;2024-01-30T07:53:04;1.50;99.90
17236;DHT22;8734;59.272;17.780;2024-01-30T07:55:49;1.60;99.90
17236;DHT22;8734;59.272;17.780;2024-01-30T07:58:17;1.60;99.90
17236;DHT22;8734;59.272;17.780;2024-01-30T08:00:45;1.60;99.90
17236;DHT22;8734;59.272;17.780;2024-01-30T08:03:15;1.60;99.90
17236;DHT22;8734;59.272;17.780;2024-01-30T08:05:45;1.60;99.90
17236;DHT22;8734;59.272;17.780;2024-01-30T08:08:13;1.60;99.90
17236;DHT22;8734;59.272;17.780;2024-01-30T08:10:41;1.60;99.90
17236;DHT22;8734;59.272;17.780;2024-01-30T08:13:10;1.60;99.90
17236;DHT22;8734;59.272;17.780;2024-01-30T08:15:38;1.60;99.90
17236;DHT22;8734;59.272;17.780;2024-01-30T08:18:06;1.60;99.90
17236;DHT22;8734;59.272;17.780;2024-01-30T08:20:36;1.60;99.90
17236;DHT22;8734;59.272;17.780;2024-01-30T08:23:04;1.60;99.90
17236;DHT22;8734;59.272;17.780;2024-01-30T08:25:32;1.60;99.90
17236;DHT22;8734;59.272;17.780;2024-01-30T08:28:00;1.60;99.90
17236;DHT22;8734;59.272;17.780;2024-01-30T08:30:29;1.70;99.90
17236;DHT22;8734;59.272;17.780;2024-01-30T08:32:57;1.70;99.90
17236;DHT22;8734;59.272;17.780;2024-01-30T08:35:25;1.70;99.90
17236;DHT22;8734;59.272;17.780;2024-01-30T08:37:55;1.90;99.90
17236;DHT22;8734;59.272;17.780;2024-01-30T08:40:24;1.90;99.90
17236;DHT22;8734;59.272;17.780;2024-01-30T08:42:53;1.90;99.90
17236;DHT22;8734;59.272;17.780;2024-01-30T08:45:21;2.00;99.90
17236;DHT22;8734;59.272;17.780;2024-01-30T08:47:49;2.00;99.90
17236;DHT22;8734;59.272;17.780;2024-01-30T08:50:17;2.00;99.90
17236;DHT22;8734;59.272;17.780;2024-01-30T08:52:46;2.00;99.90
17236;DHT22;8734;59.272;17.780;2024-01-30T08:55:17;2.00;99.90
17236;DHT22;8734;59.272;17.780;2024-01-30T08:57:45;2.00;99.90
17236;DHT22;8734;59.272;17.780;2024-01-30T09:00:14;2.00;99.90
17236;DHT22;8734;59.272;17.780;2024-01-30T09:02:43;2.00;99.90
17236;DHT22;8734;59.272;17.780;2024-01-30T09:05:11;2.00;99.90
17236;DHT22;8734;59.272;17.780;2024-01-30T09:07:41;2.10;99.90
17236;DHT22;8734;59.272;17.780;2024-01-30T09:10:10;2.10;99.90
17236;DHT22;8734;59.272;17.780;2024-01-30T09:12:42;2.20;99.90
17236;DHT22;8734;59.272;17.780;2024-01-30T09:15:10;2.30;99.90
17236;DHT22;8734;59.272;17.780;2024-01-30T09:17:38;2.40;99.90
17236;DHT22;8734;59.272;17.780;2024-01-30T09:20:07;2.40;99.90
17236;DHT22;8734;59.272;17.780;2024-01-30T09:22:36;2.30;99.90
17236;DHT22;8734;59.272;17.780;2024-01-30T09:25:05;2.30;99.90
17236;DHT22;8734;59.272;17.780;2024-01-30T09:27:33;2.30;99.90
17236;DHT22;8734;59.272;17.780;2024-01-30T09:30:03;2.30;99.90
17236;DHT22;8734;59.272;17.780;2024-01-30T09:32:31;2.30;99.90
17236;DHT22;8734;59.272;17.780;2024-01-30T09:34:59;2.50;99.90
17236;DHT22;8734;59.272;17.780;2024-01-30T09:37:28;2.60;99.90
17236;DHT22;8734;59.272;17.780;2024-01-30T09:39:56;2.60;99.90
17236;DHT22;8734;59.272;17.780;2024-01-30T09:42:28;2.60;99.90
17236;DHT22;8734;59.272;17.780;2024-01-30T09:45:01;2.60;99.90
17236;DHT22;8734;59.272;17.780;2024-01-30T09:47:32;2.80;99.90
17236;DHT22;8734;59.272;17.780;2024-01-30T09:50:01;2.90;99.90
17236;DHT22;8734;59.272;17.780;2024-01-30T09:52:33;3.00;99.90
17236;DHT22;8734;59.272;17.780;2024-01-30T09:55:01;3.10;99.90
17236;DHT22;8734;59.272;17.780;2024-01-30T09:57:30;3.20;99.90
17236;DHT22;8734;59.272;17.780;2024-01-30T09:59:58;3.20;99.90
17236;DHT22;8734;59.272;17.780;2024-01-30T10:02:28;3.30;99.90
17236;DHT22;8734;59.272;17.780;2024-01-30T10:04:56;3.30;99.90
17236;DHT22;8734;59.272;17.780;2024-01-30T10:07:25;3.30;99.90
17236;DHT22;8734;59.272;17.780;2024-01-30T10:09:53;3.20;99.90
17236;DHT22;8734;59.272;17.780;2024-01-30T10:12:25;3.20;99.90
17236;DHT22;8734;59.272;17.780;2024-01-30T10:14:56;3.20;99.90
17236;DHT22;8734;59.272;17.780;2024-01-30T10:17:25;3.20;99.90
17236;DHT22;8734;59.272;17.780;2024-01-30T10:20:04;3.30;99.90
17236;DHT22;8734;59.272;17.780;2024-01-30T10:22:33;3.30;99.90
17236;DHT22;8734;59.272;17.780;2024-01-30T10:25:02;3.30;99.90
17236;DHT22;8734;59.272;17.780;2024-01-30T10:27:32;3.40;99.90
17236;DHT22;8734;59.272;17.780;2024-01-30T10:30:00;3.50;99.90
17236;DHT22;8734;59.272;17.780;2024-01-30T10:32:32;3.40;99.90
17236;DHT22;8734;59.272;17.780;2024-01-30T10:35:01;3.50;99.90
17236;DHT22;8734;59.272;17.780;2024-01-30T10:37:30;3.40;99.90
17236;DHT22;8734;59.272;17.780;2024-01-30T10:40:02;3.50;99.90
17236;DHT22;8734;59.272;17.780;2024-01-30T10:42:33;3.50;99.90
17236;DHT22;8734;59.272;17.780;2024-01-30T10:45:06;3.50;99.90
17236;DHT22;8734;59.272;17.780;2024-01-30T10:47:36;3.60;99.90
17236;DHT22;8734;59.272;17.780;2024-01-30T10:50:08;3.50;99.90
17236;DHT22;8734;59.272;17.780;2024-01-30T10:52:38;3.50;99.90
17236;DHT22;8734;59.272;17.780;2024-01-30T10:55:09;3.60;99.90
17236;DHT22;8734;59.272;17.780;2024-01-30T10:57:38;3.60;99.90
17236;DHT22;8734;59.272;17.780;2024-01-30T11:00:08;3.60;99.90
17236;DHT22;8734;59.272;17.780;2024-01-30T11:02:40;3.60;99.90
17236;DHT22;8734;59.272;17.780;2024-01-30T11:05:10;3.70;99.90
17236;DHT22;8734;59.272;17.780;2024-01-30T11:07:39;3.70;99.90
17236;DHT22;8734;59.272;17.780;2024-01-30T11:10:08;3.80;99.90
17236;DHT22;8734;59.272;17.780;2024-01-30T11:12:40;3.90;99.90
17236;DHT22;8734;59.272;17.780;2024-01-30T11:15:12;3.90;99.90
17236;DHT22;8734;59.272;17.780;2024-01-30T11:17:42;4.00;99.90
17236;DHT22;8734;59.272;17.780;2024-01-30T11:20:14;3.90;99.90
17236;DHT22;8734;59.272;17.780;2024-01-30T11:22:45;3.90;99.90
17236;DHT22;8734;59.272;17.780;2024-01-30T11:25:15;3.90;99.90
17236;DHT22;8734;59.272;17.780;2024-01-30T11:27:44;3.90;99.90
17236;DHT22;8734;59.272;17.780;2024-01-30T11:30:21;3.90;99.90
17236;DHT22;8734;59.272;17.780;2024-01-30T11:33:00;3.70;99.90
17236;DHT22;8734;59.272;17.780;2024-01-30T11:35:32;3.60;99.90
17236;DHT22;8734;59.272;17.780;2024-01-30T11:38:02;3.60;99.90
17236;DHT22;8734;59.272;17.780;2024-01-30T11:40:31;3.70;99.90
17236;DHT22;8734;59.272;17.780;2024-01-30T11:43:02;3.70;99.90
17236;DHT22;8734;59.272;17.780;2024-01-30T11:45:32;3.90;99.90
17236;DHT22;8734;59.272;17.780;2024-01-30T11:48:00;4.00;99.90
17236;DHT22;8734;59.272;17.780;2024-01-30T11:50:33;3.90;99.90
17236;DHT22;8734;59.272;17.780;2024-01-30T11:53:01;3.90;99.90
17236;DHT22;8734;59.272;17.780;2024-01-30T11:55:30;4.00;99.90
17236;DHT22;8734;59.272;17.780;2024-01-30T11:58:01;4.00;99.90
17236;DHT22;8734;59.272;17.780;2024-01-30T12:00:30;4.10;99.90
17236;DHT22;8734;59.272;17.780;2024-01-30T12:03:00;4.10;99.90
17236;DHT22;8734;59.272;17.780;2024-01-30T12:05:31;4.10;99.90
17236;DHT22;8734;59.272;17.780;2024-01-30T12:07:59;4.20;99.90
17236;DHT22;8734;59.272;17.780;2024-01-30T12:10:29;4.20;99.90
17236;DHT22;8734;59.272;17.780;2024-01-30T12:12:58;4.30;99.90
17236;DHT22;8734;59.272;17.780;2024-01-30T12:15:26;4.30;99.90
17236;DHT22;8734;59.272;17.780;2024-01-30T12:18:04;4.30;99.90
17236;DHT22;8734;59.272;17.780;2024-01-30T12:20:35;4.30;99.90
17236;DHT22;8734;59.272;17.780;2024-01-30T12:23:04;4.30;99.90
17236;DHT22;8734;59.272;17.780;2024-01-30T12:25:32;4.30;99.90
17236;DHT22;8734;59.272;17.780;2024-01-30T12:28:01;4.30;99.90
17236;DHT22;8734;59.272;17.780;2024-01-30T12:30:30;4.20;99.90
17236;DHT22;8734;59.272;17.780;2024-01-30T12:32:58;4.20;99.90
17236;DHT22;8734;59.272;17.780;2024-01-30T12:35:26;4.20;99.90
17236;DHT22;8734;59.272;17.780;2024-01-30T12:38:00;4.20;99.90
17236;DHT22;8734;59.272;17.780;2024-01-30T12:40:29;4.20;99.90
17236;DHT22;8734;59.272;17.780;2024-01-30T12:42:57;4.20;99.90
17236;DHT22;8734;59.272;17.780;2024-01-30T12:45:25;4.20;99.90
17236;DHT22;8734;59.272;17.780;2024-01-30T12:47:54;4.20;99.90
17236;DHT22;8734;59.272;17.780;2024-01-30T12:50:22;4.10;99.90
17236;DHT22;8734;59.272;17.780;2024-01-30T12:52:51;4.20;99.90
17236;DHT22;8734;59.272;17.780;2024-01-30T12:55:21;4.20;99.90
17236;DHT22;8734;59.272;17.780;2024-01-30T12:57:49;4.20;99.90
17236;DHT22;8734;59.272;17.780;2024-01-30T13:00:17;4.20;99.90
17236;DHT22;8734;59.272;17.780;2024-01-30T13:02:47;4.20;99.90
17236;DHT22;8734;59.272;17.780;2024-01-30T13:05:16;4.20;99.90
17236;DHT22;8734;59.272;17.780;2024-01-30T13:07:44;4.20;99.90
17236;DHT22;8734;59.272;17.780;2024-01-30T13:10:13;4.20;99.90
17236;DHT22;8734;59.272;17.780;2024-01-30T13:12:42;4.20;99.90
17236;DHT22;8734;59.272;17.780;2024-01-30T13:15:11;4.20;99.90
17236;DHT22;8734;59.272;17.780;2024-01-30T13:17:39;4.20;99.90
17236;DHT22;8734;59.272;17.780;2024-01-30T13:20:10;4.20;99.90
17236;DHT22;8734;59.272;17.780;2024-01-30T13:22:39;4.20;99.90
17236;DHT22;8734;59.272;17.780;2024-01-30T13:25:07;4.10;99.90
17236;DHT22;8734;59.272;17.780;2024-01-30T13:27:36;4.20;99.90
17236;DHT22;8734;59.272;17.780;2024-01-30T13:30:08;4.10;99.90
17236;DHT22;8734;59.272;17.780;2024-01-30T13:32:37;4.10;99.90
17236;DHT22;8734;59.272;17.780;2024-01-30T13:35:07;4.00;99.90
17236;DHT22;8734;59.272;17.780;2024-01-30T13:37:36;4.00;99.90
17236;DHT22;8734;59.272;17.780;2024-01-30T13:40:07;4.00;99.90
17236;DHT22;8734;59.272;17.780;2024-01-30T13:42:40;4.00;99.90
17236;DHT22;8734;59.272;17.780;2024-01-30T13:45:10;4.10;99.90
17236;DHT22;8734;59.272;17.780;2024-01-30T13:47:38;4.10;99.90
17236;DHT22;8734;59.272;17.780;2024-01-30T13:50:08;4.10;99.90
17236;DHT22;8734;59.272;17.780;2024-01-30T13:52:42;4.10;99.90
17236;DHT22;8734;59.272;17.780;2024-01-30T13:55:12;4.10;99.90
17236;DHT22;8734;59.272;17.780;2024-01-30T13:57:41;4.10;99.90
17236;DHT22;8734;59.272;17.780;2024-01-30T14:00:12;4.00;99.90
17236;DHT22;8734;59.272;17.780;2024-01-30T14:02:43;4.00;99.90
17236;DHT22;8734;59.272;17.780;2024-01-30T14:05:12;4.00;99.90
17236;DHT22;8734;59.272;17.780;2024-01-30T14:07:43;4.00;99.90
17236;DHT22;8734;59.272;17.780;2024-01-30T14:10:12;4.00;99.90
17236;DHT22;8734;59.272;17.780;2024-01-30T14:12:43;4.00;99.90
17236;DHT22;8734;59.272;17.780;2024-01-30T14:15:15;4.00;99.90
17236;DHT22;8734;59.272;17.780;2024-01-30T14:17:54;4.00;99.90
17236;DHT22;8734;59.272;17.780;2024-01-30T14:20:25;3.90;99.90
17236;DHT22;8734;59.272;17.780;2024-01-30T14:22:53;3.90;99.90
17236;DHT22;8734;59.272;17.780;2024-01-30T14:25:26;3.90;99.90
17236;DHT22;8734;59.272;17.780;2024-01-30T14:27:55;3.90;99.90
17236;DHT22;8734;59.272;17.780;2024-01-30T14:30:25;3.80;99.90
17236;DHT22;8734;59.272;17.780;2024-01-30T14:32:54;3.80;99.90
17236;DHT22;8734;59.272;17.780;2024-01-30T14:35:23;3.80;99.90
17236;DHT22;8734;59.272;17.780;2024-01-30T14:37:51;3.80;99.90
17236;DHT22;8734;59.272;17.780;2024-01-30T14:40:20;3.80;99.90
17236;DHT22;8734;59.272;17.780;2024-01-30T14:42:49;3.80;99.90
17236;DHT22;8734;59.272;17.780;2024-01-30T14:45:17;3.80;99.90
17236;DHT22;8734;59.272;17.780;2024-01-30T14:47:47;3.70;99.90
17236;DHT22;8734;59.272;17.780;2024-01-30T14:50:16;3.70;99.90
17236;DHT22;8734;59.272;17.780;2024-01-30T14:52:44;3.70;99.90
17236;DHT22;8734;59.272;17.780;2024-01-30T14:55:12;3.70;99.90
17236;DHT22;8734;59.272;17.780;2024-01-30T14:57:41;3.70;99.90
17236;DHT22;8734;59.272;17.780;2024-01-30T15:00:13;3.60;99.90
17236;DHT22;8734;59.272;17.780;2024-01-30T15:02:43;3.60;99.90
17236;DHT22;8734;59.272;17.780;2024-01-30T15:05:14;3.60;99.90
17236;DHT22;8734;59.272;17.780;2024-01-30T15:07:43;3.60;99.90
17236;DHT22;8734;59.272;17.780;2024-01-30T15:10:12;3.60;99.90
17236;DHT22;8734;59.272;17.780;2024-01-30T15:12:40;3.50;99.90
17236;DHT22;8734;59.272;17.780;2024-01-30T15:15:08;3.50;99.90
17236;DHT22;8734;59.272;17.780;2024-01-30T15:17:38;3.50;99.90
17236;DHT22;8734;59.272;17.780;2024-01-30T15:20:07;3.40;99.90
17236;DHT22;8734;59.272;17.780;2024-01-30T15:22:38;3.40;99.90
17236;DHT22;8734;59.272;17.780;2024-01-30T15:25:07;3.50;99.90
17236;DHT22;8734;59.272;17.780;2024-01-30T15:27:36;3.40;99.90
17236;DHT22;8734;59.272;17.780;2024-01-30T15:30:05;3.40;99.90
17236;DHT22;8734;59.272;17.780;2024-01-30T15:32:33;3.40;99.90
17236;DHT22;8734;59.272;17.780;2024-01-30T15:35:02;3.40;99.90
17236;DHT22;8734;59.272;17.780;2024-01-30T15:37:34;3.40;99.90
17236;DHT22;8734;59.272;17.780;2024-01-30T15:40:06;3.40;99.90
17236;DHT22;8734;59.272;17.780;2024-01-30T15:42:37;3.50;99.90
17236;DHT22;8734;59.272;17.780;2024-01-30T15:45:06;3.40;99.90
17236;DHT22;8734;59.272;17.780;2024-01-30T15:47:34;3.40;99.90
17236;DHT22;8734;59.272;17.780;2024-01-30T15:50:04;3.40;99.90
17236;DHT22;8734;59.272;17.780;2024-01-30T15:52:32;3.40;99.90
17236;DHT22;8734;59.272;17.780;2024-01-30T15:55:05;3.40;99.90
17236;DHT22;8734;59.272;17.780;2024-01-30T15:57:33;3.30;99.90